PWSweather.com
Personal Weather Stations
Station Observations
SBERGENWX
Wood Ridge, NJ 07075

Wood Ridge, NJ 07075

Lat: 40.851667, Lon: -74.088131

Elevation: 177

Station Type: Davis Vantage Vue

http://201weather.com/

Latest ConditionsUpdated 5:45:01 PM EST Sunday, Dec 9, 2018
Currently Today's Max Today's Min Today's Average
Temperature 31.4°F-0.3°C 34.1°F1.2°C 23.1°F-4.9°C 28.6°F-1.9°C
Dew Point 21.3°F-5.9°C 21.8°F-5.7°C 15.6°F-9.1°C 18.1°F-7.7°C
Winds Calm Calm 2.3 mph -3.7 kmh - - 0.1 mph 0.2 kmh
Wind Gusts 2.3 mph3.7 kmh 3.5 mph5.6 kmh - -
Humidity 66% 75% 55% 65%
Pressure 30.25 in1024.4 mb 30.54 in1034.2 mb 30.25 in1024.4 mb -
Hour Temp Dew Point Humidity Winds Wind Gusts Pressure Precip Precip Rate Daily Precip Total
05:45 PM 31.4°F-0.3°C 21.3°F-5.9°C 66% Calm Calm 2.3 mph3.7 kmh 30.25 in1024.4 mb - 0.00 in0.0 mm 0.00 in0.0 mm
05:30 PM 31.6°F-0.2°C 21.5°F-5.8°C 66% 1.2 mph W1.9 kmh W 3.5 mph5.6 kmh 30.26 in1024.7 mb - 0.00 in0.0 mm 0.00 in0.0 mm
05:15 PM 31.8°F-0.1°C 21.4°F-5.9°C 65% Calm Calm -- 30.26 in1024.7 mb - 0.00 in0.0 mm 0.00 in0.0 mm
05:00 PM 31.8°F-0.1°C 21.4°F-5.9°C 65% Calm Calm -- 30.26 in1024.7 mb - 0.00 in0.0 mm 0.00 in0.0 mm
04:45 PM 32.1°F0.1°C 21.3°F-5.9°C 64% Calm Calm -- 30.27 in1025.1 mb - 0.00 in0.0 mm 0.00 in0.0 mm
04:30 PM 32.5°F0.3°C 21.3°F-5.9°C 63% Calm Calm -- 30.28 in1025.4 mb - 0.00 in0.0 mm 0.00 in0.0 mm
04:15 PM 32.8°F0.4°C 21.2°F-6.0°C 62% Calm Calm -- 30.29 in1025.7 mb - 0.00 in0.0 mm 0.00 in0.0 mm
04:00 PM 33.2°F0.7°C 21.6°F-5.8°C 62% Calm Calm 2.3 mph3.7 kmh 30.30 in1026.1 mb - 0.00 in0.0 mm 0.00 in0.0 mm
03:45 PM 33.4°F0.8°C 21.8°F-5.7°C 62% Calm Calm 2.3 mph3.7 kmh 30.30 in1026.1 mb - 0.00 in0.0 mm 0.00 in0.0 mm
03:30 PM 33.6°F0.9°C 21.6°F-5.8°C 61% Calm Calm -- 30.30 in1026.1 mb - 0.00 in0.0 mm 0.00 in0.0 mm
03:15 PM 33.6°F0.9°C 21.2°F-6.0°C 60% 1.2 mph W1.9 kmh W 3.5 mph5.6 kmh 30.31 in1026.4 mb - 0.00 in0.0 mm 0.00 in0.0 mm
03:00 PM 33.6°F0.9°C 20.4°F-6.4°C 58% Calm Calm 1.2 mph1.9 kmh 30.31 in1026.4 mb - 0.00 in0.0 mm 0.00 in0.0 mm
02:45 PM 34.0°F1.1°C 20.7°F-6.3°C 58% 1.2 mph SSW1.9 kmh SSW 2.3 mph3.7 kmh 30.32 in1026.8 mb - 0.00 in0.0 mm 0.00 in0.0 mm
02:30 PM 34.0°F1.1°C 20.8°F-6.2°C 58% 1.2 mph SW1.9 kmh SW 2.3 mph3.7 kmh 30.33 in1027.1 mb - 0.00 in0.0 mm 0.00 in0.0 mm
02:15 PM 33.9°F1.1°C 19.8°F-6.8°C 56% Calm Calm 1.2 mph1.9 kmh 30.33 in1027.1 mb - 0.00 in0.0 mm 0.00 in0.0 mm
02:00 PM 33.9°F1.1°C 19.8°F-6.8°C 56% Calm Calm 2.3 mph3.7 kmh 30.33 in1027.1 mb - 0.00 in0.0 mm 0.00 in0.0 mm
01:45 PM 34.1°F1.2°C 19.6°F-6.9°C 55% 1.2 mph SW1.9 kmh SW 1.2 mph1.9 kmh 30.34 in1027.4 mb - 0.00 in0.0 mm 0.00 in0.0 mm
01:30 PM 33.9°F1.1°C 19.4°F-7.0°C 55% Calm Calm -- 30.35 in1027.8 mb - 0.00 in0.0 mm 0.00 in0.0 mm
01:15 PM 33.6°F0.9°C 19.1°F-7.2°C 55% 1.2 mph W1.9 kmh W 1.2 mph1.9 kmh 30.35 in1027.8 mb - 0.00 in0.0 mm 0.00 in0.0 mm
01:00 PM 33.8°F1.0°C 19.4°F-7.0°C 55% 2.3 mph W3.7 kmh W 3.5 mph5.6 kmh 30.36 in1028.1 mb - 0.00 in0.0 mm 0.00 in0.0 mm
12:45 PM 33.7°F0.9°C 19.2°F-7.1°C 55% Calm Calm 1.2 mph1.9 kmh 30.36 in1028.1 mb - 0.00 in0.0 mm 0.00 in0.0 mm
12:30 PM 33.3°F0.7°C 19.3°F-7.1°C 56% Calm Calm -- 30.37 in1028.4 mb - 0.00 in0.0 mm 0.00 in0.0 mm
12:15 PM 33.4°F0.8°C 19.4°F-7.0°C 56% Calm Calm 1.2 mph1.9 kmh 30.38 in1028.8 mb - 0.00 in0.0 mm 0.00 in0.0 mm
12:00 PM 33.2°F0.7°C 19.2°F-7.1°C 56% Calm Calm 3.5 mph5.6 kmh 30.40 in1029.5 mb - 0.00 in0.0 mm 0.00 in0.0 mm
11:45 AM 33.1°F0.6°C 19.1°F-7.2°C 56% Calm Calm 2.3 mph3.7 kmh 30.40 in1029.5 mb - 0.00 in0.0 mm 0.00 in0.0 mm
11:30 AM 32.7°F0.4°C 19.1°F-7.2°C 57% Calm Calm 1.2 mph1.9 kmh 30.41 in1029.8 mb - 0.00 in0.0 mm 0.00 in0.0 mm
11:15 AM 31.9°F-0.1°C 18.4°F-7.6°C 57% Calm Calm 1.2 mph1.9 kmh 30.41 in1029.8 mb - 0.00 in0.0 mm 0.00 in0.0 mm
11:00 AM 31.4°F-0.3°C 18.7°F-7.4°C 59% Calm Calm 1.2 mph1.9 kmh 30.41 in1029.8 mb - 0.00 in0.0 mm 0.00 in0.0 mm
10:45 AM 30.7°F-0.7°C 19.2°F-7.1°C 62% Calm Calm 1.2 mph1.9 kmh 30.43 in1030.5 mb - 0.00 in0.0 mm 0.00 in0.0 mm
10:30 AM 29.9°F-1.2°C 19.2°F-7.1°C 64% Calm Calm -- 30.44 in1030.8 mb - 0.00 in0.0 mm 0.00 in0.0 mm
10:15 AM 29.2°F-1.6°C 19.2°F-7.1°C 66% Calm Calm -- 30.45 in1031.2 mb - 0.00 in0.0 mm 0.00 in0.0 mm
10:00 AM 28.5°F-1.9°C 18.6°F-7.4°C 66% Calm Calm -- 30.45 in1031.2 mb - 0.00 in0.0 mm 0.00 in0.0 mm
09:45 AM 27.7°F-2.4°C 18.2°F-7.7°C 67% Calm Calm 1.2 mph1.9 kmh 30.46 in1031.5 mb - 0.00 in0.0 mm 0.00 in0.0 mm
09:30 AM 27.3°F-2.6°C 17.8°F-7.9°C 67% Calm Calm 1.2 mph1.9 kmh 30.46 in1031.5 mb - 0.00 in0.0 mm 0.00 in0.0 mm
09:15 AM 27.0°F-2.8°C 17.8°F-7.9°C 68% Calm Calm 1.2 mph1.9 kmh 30.46 in1031.5 mb - 0.00 in0.0 mm 0.00 in0.0 mm
09:00 AM 26.6°F-3.0°C 17.8°F-7.9°C 69% Calm Calm -- 30.47 in1031.8 mb - 0.00 in0.0 mm 0.00 in0.0 mm
08:45 AM 26.2°F-3.2°C 18.1°F-7.7°C 71% Calm Calm -- 30.47 in1031.8 mb - 0.00 in0.0 mm 0.00 in0.0 mm
08:30 AM 25.7°F-3.5°C 17.9°F-7.8°C 72% Calm Calm -- 30.48 in1032.2 mb - 0.00 in0.0 mm 0.00 in0.0 mm
08:15 AM 25.2°F-3.8°C 17.8°F-7.9°C 73% Calm Calm 1.2 mph1.9 kmh 30.48 in1032.2 mb - 0.00 in0.0 mm 0.00 in0.0 mm
08:00 AM 24.7°F-4.1°C 17.6°F-8.0°C 74% Calm Calm -- 30.48 in1032.2 mb - 0.00 in0.0 mm 0.00 in0.0 mm
07:45 AM 24.3°F-4.3°C 17.2°F-8.2°C 74% Calm Calm -- 30.48 in1032.2 mb - 0.00 in0.0 mm 0.00 in0.0 mm
07:30 AM 23.9°F-4.5°C 17.1°F-8.3°C 75% Calm Calm -- 30.48 in1032.2 mb - 0.00 in0.0 mm 0.00 in0.0 mm
07:15 AM 23.6°F-4.7°C 16.5°F-8.6°C 74% Calm Calm -- 30.48 in1032.2 mb - 0.00 in0.0 mm 0.00 in0.0 mm
07:00 AM 23.9°F-4.5°C 16.5°F-8.6°C 73% Calm Calm -- 30.48 in1032.2 mb - 0.00 in0.0 mm 0.00 in0.0 mm
06:45 AM 23.6°F-4.7°C 16.2°F-8.8°C 73% Calm Calm -- 30.48 in1032.2 mb - 0.00 in0.0 mm 0.00 in0.0 mm
06:30 AM 23.1°F-4.9°C 15.7°F-9.1°C 73% Calm Calm -- 30.48 in1032.2 mb - 0.00 in0.0 mm 0.00 in0.0 mm
06:15 AM 23.8°F-4.6°C 16.4°F-8.7°C 73% Calm Calm -- 30.48 in1032.2 mb - 0.00 in0.0 mm 0.00 in0.0 mm
06:00 AM 23.4°F-4.8°C 15.7°F-9.1°C 72% Calm Calm -- 30.48 in1032.2 mb - 0.00 in0.0 mm 0.00 in0.0 mm
05:45 AM 24.1°F-4.4°C 16.0°F-8.9°C 71% Calm Calm -- 30.49 in1032.5 mb - 0.00 in0.0 mm 0.00 in0.0 mm
05:30 AM 24.4°F-4.2°C 16.3°F-8.7°C 71% Calm Calm -- 30.49 in1032.5 mb - 0.00 in0.0 mm 0.00 in0.0 mm
05:15 AM 24.3°F-4.3°C 15.9°F-8.9°C 70% Calm Calm -- 30.49 in1032.5 mb - 0.00 in0.0 mm 0.00 in0.0 mm
05:00 AM 24.5°F-4.2°C 16.1°F-8.8°C 70% Calm Calm -- 30.49 in1032.5 mb - 0.00 in0.0 mm 0.00 in0.0 mm
04:45 AM 24.6°F-4.1°C 16.2°F-8.8°C 70% Calm Calm -- 30.49 in1032.5 mb - 0.00 in0.0 mm 0.00 in0.0 mm
04:30 AM 24.5°F-4.2°C 16.1°F-8.8°C 70% Calm Calm -- 30.49 in1032.5 mb - 0.00 in0.0 mm 0.00 in0.0 mm
04:15 AM 24.5°F-4.2°C 15.8°F-9.0°C 69% Calm Calm -- 30.50 in1032.8 mb - 0.00 in0.0 mm 0.00 in0.0 mm
04:00 AM 24.8°F-4.0°C 15.7°F-9.1°C 68% Calm Calm -- 30.50 in1032.8 mb - 0.00 in0.0 mm 0.00 in0.0 mm
03:45 AM 25.1°F-3.8°C 16.0°F-8.9°C 68% Calm Calm -- 30.50 in1032.8 mb - 0.00 in0.0 mm 0.00 in0.0 mm
03:30 AM 25.2°F-3.8°C 16.1°F-8.8°C 68% Calm Calm -- 30.50 in1032.8 mb - 0.00 in0.0 mm 0.00 in0.0 mm
03:15 AM 25.3°F-3.7°C 16.2°F-8.8°C 68% Calm Calm -- 30.50 in1032.8 mb - 0.00 in0.0 mm 0.00 in0.0 mm
03:00 AM 25.4°F-3.7°C 16.0°F-8.9°C 67% Calm Calm -- 30.50 in1032.8 mb - 0.00 in0.0 mm 0.00 in0.0 mm
02:45 AM 25.5°F-3.6°C 16.1°F-8.8°C 67% Calm Calm -- 30.51 in1033.2 mb - 0.00 in0.0 mm 0.00 in0.0 mm
02:30 AM 25.7°F-3.5°C 15.9°F-8.9°C 66% Calm Calm -- 30.52 in1033.5 mb - 0.00 in0.0 mm 0.00 in0.0 mm
02:15 AM 25.8°F-3.4°C 16.0°F-8.9°C 66% Calm Calm -- 30.52 in1033.5 mb - 0.00 in0.0 mm 0.00 in0.0 mm
02:00 AM 25.9°F-3.4°C 16.1°F-8.8°C 66% Calm Calm 1.2 mph1.9 kmh 30.52 in1033.5 mb - 0.00 in0.0 mm 0.00 in0.0 mm
01:45 AM 26.0°F-3.3°C 15.8°F-9.0°C 65% Calm Calm -- 30.52 in1033.5 mb - 0.00 in0.0 mm 0.00 in0.0 mm
01:30 AM 26.3°F-3.2°C 15.8°F-9.0°C 64% Calm Calm 1.2 mph1.9 kmh 30.52 in1033.5 mb - 0.00 in0.0 mm 0.00 in0.0 mm
01:15 AM 26.8°F-2.9°C 15.9°F-8.9°C 63% Calm Calm -- 30.52 in1033.5 mb - 0.00 in0.0 mm 0.00 in0.0 mm
01:00 AM 26.9°F-2.8°C 15.6°F-9.1°C 62% Calm Calm 1.2 mph1.9 kmh 30.53 in1033.9 mb - 0.00 in0.0 mm 0.00 in0.0 mm
12:45 AM 26.9°F-2.8°C 16.0°F-8.9°C 63% Calm Calm 2.3 mph3.7 kmh 30.53 in1033.9 mb - 0.00 in0.0 mm 0.00 in0.0 mm
12:30 AM 27.3°F-2.6°C 16.0°F-8.9°C 62% Calm Calm -- 30.53 in1033.9 mb - 0.00 in0.0 mm 0.00 in0.0 mm
12:15 AM 27.6°F-2.4°C 15.9°F-8.9°C 61% Calm Calm 1.2 mph1.9 kmh 30.54 in1034.2 mb - 0.00 in0.0 mm 0.00 in0.0 mm
12:00 AM 27.5°F-2.5°C 16.2°F-8.8°C 62% Calm Calm 1.2 mph1.9 kmh 30.54 in1034.2 mb - 0.00 in0.0 mm 0.00 in0.0 mm